sensor_id;sensor_type;location;lat;lon;timestamp;temperature;humidity
4223;DHT22;2125;51.436;14.138;2022-12-20T00:00:44;1.50;88.10
4223;DHT22;2125;51.436;14.138;2022-12-20T00:03:11;1.50;88.00
4223;DHT22;2125;51.436;14.138;2022-12-20T00:05:39;1.50;88.00
4223;DHT22;2125;51.436;14.138;2022-12-20T00:08:06;1.50;88.10
4223;DHT22;2125;51.436;14.138;2022-12-20T00:10:34;1.50;88.00
4223;DHT22;2125;51.436;14.138;2022-12-20T00:13:03;1.50;88.00
4223;DHT22;2125;51.436;14.138;2022-12-20T00:15:30;1.40;88.00
4223;DHT22;2125;51.436;14.138;2022-12-20T00:17:58;1.40;88.00
4223;DHT22;2125;51.436;14.138;2022-12-20T00:20:25;1.50;88.00
4223;DHT22;2125;51.436;14.138;2022-12-20T00:22:52;1.50;88.10
4223;DHT22;2125;51.436;14.138;2022-12-20T00:25:19;1.50;88.00
4223;DHT22;2125;51.436;14.138;2022-12-20T00:27:47;1.50;88.00
4223;DHT22;2125;51.436;14.138;2022-12-20T00:30:16;1.50;88.00
4223;DHT22;2125;51.436;14.138;2022-12-20T00:32:43;1.50;88.00
4223;DHT22;2125;51.436;14.138;2022-12-20T00:35:10;1.50;88.00
4223;DHT22;2125;51.436;14.138;2022-12-20T00:37:36;1.50;88.00
4223;DHT22;2125;51.436;14.138;2022-12-20T00:40:04;1.60;88.00
4223;DHT22;2125;51.436;14.138;2022-12-20T00:42:31;1.60;88.00
4223;DHT22;2125;51.436;14.138;2022-12-20T00:44:58;1.60;88.00
4223;DHT22;2125;51.436;14.138;2022-12-20T00:47:26;1.60;88.00
4223;DHT22;2125;51.436;14.138;2022-12-20T00:50:19;1.60;88.10
4223;DHT22;2125;51.436;14.138;2022-12-20T00:52:46;1.60;88.00
4223;DHT22;2125;51.436;14.138;2022-12-20T00:55:13;1.70;88.00
4223;DHT22;2125;51.436;14.138;2022-12-20T00:57:39;1.70;88.10
4223;DHT22;2125;51.436;14.138;2022-12-20T01:00:07;1.80;88.10
4223;DHT22;2125;51.436;14.138;2022-12-20T01:02:35;1.90;87.90
4223;DHT22;2125;51.436;14.138;2022-12-20T01:05:02;2.00;88.00
4223;DHT22;2125;51.436;14.138;2022-12-20T01:07:29;2.00;87.90
4223;DHT22;2125;51.436;14.138;2022-12-20T01:09:56;2.00;87.90
4223;DHT22;2125;51.436;14.138;2022-12-20T01:12:23;2.00;87.90
4223;DHT22;2125;51.436;14.138;2022-12-20T01:14:49;2.00;87.90
4223;DHT22;2125;51.436;14.138;2022-12-20T01:17:16;2.10;87.90
4223;DHT22;2125;51.436;14.138;2022-12-20T01:19:44;2.20;87.90
4223;DHT22;2125;51.436;14.138;2022-12-20T01:22:12;2.20;87.90
4223;DHT22;2125;51.436;14.138;2022-12-20T01:24:41;2.30;87.80
4223;DHT22;2125;51.436;14.138;2022-12-20T01:27:07;2.30;87.70
4223;DHT22;2125;51.436;14.138;2022-12-20T01:29:34;2.30;87.80
4223;DHT22;2125;51.436;14.138;2022-12-20T01:32:04;2.20;87.80
4223;DHT22;2125;51.436;14.138;2022-12-20T01:34:31;2.30;87.70
4223;DHT22;2125;51.436;14.138;2022-12-20T01:37:01;2.40;87.80
4223;DHT22;2125;51.436;14.138;2022-12-20T01:39:41;2.40;87.80
4223;DHT22;2125;51.436;14.138;2022-12-20T01:42:09;2.40;87.80
4223;DHT22;2125;51.436;14.138;2022-12-20T01:45:03;2.50;87.80
4223;DHT22;2125;51.436;14.138;2022-12-20T01:47:36;2.50;87.80
4223;DHT22;2125;51.436;14.138;2022-12-20T01:50:04;2.50;87.80
4223;DHT22;2125;51.436;14.138;2022-12-20T01:52:34;2.50;87.80
4223;DHT22;2125;51.436;14.138;2022-12-20T01:55:07;2.50;87.80
4223;DHT22;2125;51.436;14.138;2022-12-20T01:57:41;2.50;87.80
4223;DHT22;2125;51.436;14.138;2022-12-20T02:00:09;2.50;87.80
4223;DHT22;2125;51.436;14.138;2022-12-20T02:02:36;2.50;87.80
4223;DHT22;2125;51.436;14.138;2022-12-20T02:05:04;2.50;87.90
4223;DHT22;2125;51.436;14.138;2022-12-20T02:07:34;2.60;87.90
4223;DHT22;2125;51.436;14.138;2022-12-20T02:10:03;2.50;87.80
4223;DHT22;2125;51.436;14.138;2022-12-20T02:12:37;2.50;87.90
4223;DHT22;2125;51.436;14.138;2022-12-20T02:15:27;2.60;87.90
4223;DHT22;2125;51.436;14.138;2022-12-20T02:18:07;2.50;87.90
4223;DHT22;2125;51.436;14.138;2022-12-20T02:24:02;2.50;87.90
4223;DHT22;2125;51.436;14.138;2022-12-20T02:27:16;2.50;87.90
4223;DHT22;2125;51.436;14.138;2022-12-20T02:30:05;2.60;87.90
4223;DHT22;2125;51.436;14.138;2022-12-20T02:32:37;2.60;88.00
4223;DHT22;2125;51.436;14.138;2022-12-20T02:35:08;2.60;87.90
4223;DHT22;2125;51.436;14.138;2022-12-20T02:37:35;2.70;87.90
4223;DHT22;2125;51.436;14.138;2022-12-20T02:40:03;2.70;88.00
4223;DHT22;2125;51.436;14.138;2022-12-20T02:42:32;2.70;87.90
4223;DHT22;2125;51.436;14.138;2022-12-20T02:45:04;2.60;87.90
4223;DHT22;2125;51.436;14.138;2022-12-20T02:47:44;2.50;87.80
4223;DHT22;2125;51.436;14.138;2022-12-20T02:50:14;2.50;87.90
4223;DHT22;2125;51.436;14.138;2022-12-20T02:52:42;2.50;87.90
4223;DHT22;2125;51.436;14.138;2022-12-20T02:55:09;2.50;87.90
4223;DHT22;2125;51.436;14.138;2022-12-20T02:57:42;2.50;87.90
4223;DHT22;2125;51.436;14.138;2022-12-20T03:00:16;2.50;88.00
4223;DHT22;2125;51.436;14.138;2022-12-20T03:02:44;2.50;88.00
4223;DHT22;2125;51.436;14.138;2022-12-20T03:05:31;2.40;87.90
4223;DHT22;2125;51.436;14.138;2022-12-20T03:07:59;2.40;87.90
4223;DHT22;2125;51.436;14.138;2022-12-20T03:10:26;2.40;88.00
4223;DHT22;2125;51.436;14.138;2022-12-20T03:12:53;2.40;88.00
4223;DHT22;2125;51.436;14.138;2022-12-20T03:15:21;2.30;88.00
4223;DHT22;2125;51.436;14.138;2022-12-20T03:17:48;2.30;88.00
4223;DHT22;2125;51.436;14.138;2022-12-20T03:20:15;2.30;87.90
4223;DHT22;2125;51.436;14.138;2022-12-20T03:22:41;2.40;88.00
4223;DHT22;2125;51.436;14.138;2022-12-20T03:25:08;2.40;88.00
4223;DHT22;2125;51.436;14.138;2022-12-20T03:27:35;2.40;87.90
4223;DHT22;2125;51.436;14.138;2022-12-20T03:30:02;2.40;88.00
4223;DHT22;2125;51.436;14.138;2022-12-20T03:32:30;2.40;88.00
4223;DHT22;2125;51.436;14.138;2022-12-20T03:34:57;2.30;87.90
4223;DHT22;2125;51.436;14.138;2022-12-20T03:37:24;2.30;87.90
4223;DHT22;2125;51.436;14.138;2022-12-20T03:39:50;2.30;87.90
4223;DHT22;2125;51.436;14.138;2022-12-20T03:42:17;2.40;87.90
4223;DHT22;2125;51.436;14.138;2022-12-20T03:44:44;2.40;87.90
4223;DHT22;2125;51.436;14.138;2022-12-20T03:47:10;2.40;87.90
4223;DHT22;2125;51.436;14.138;2022-12-20T03:49:38;2.40;87.90
4223;DHT22;2125;51.436;14.138;2022-12-20T03:52:05;2.30;87.90
4223;DHT22;2125;51.436;14.138;2022-12-20T03:54:32;2.40;87.90
4223;DHT22;2125;51.436;14.138;2022-12-20T03:56:58;2.30;87.90
4223;DHT22;2125;51.436;14.138;2022-12-20T03:59:25;2.40;87.90
4223;DHT22;2125;51.436;14.138;2022-12-20T04:01:52;2.30;87.90
4223;DHT22;2125;51.436;14.138;2022-12-20T04:04:18;2.30;88.00
4223;DHT22;2125;51.436;14.138;2022-12-20T04:06:46;2.30;87.90
4223;DHT22;2125;51.436;14.138;2022-12-20T04:09:13;2.30;87.80
4223;DHT22;2125;51.436;14.138;2022-12-20T04:11:40;2.40;87.90
4223;DHT22;2125;51.436;14.138;2022-12-20T04:14:07;2.40;87.90
4223;DHT22;2125;51.436;14.138;2022-12-20T04:16:33;2.40;87.90
4223;DHT22;2125;51.436;14.138;2022-12-20T04:19:00;2.40;87.90
4223;DHT22;2125;51.436;14.138;2022-12-20T04:21:28;2.40;87.90
4223;DHT22;2125;51.436;14.138;2022-12-20T04:23:57;2.50;87.90
4223;DHT22;2125;51.436;14.138;2022-12-20T04:26:26;2.50;87.90
4223;DHT22;2125;51.436;14.138;2022-12-20T04:28:53;2.60;87.90
4223;DHT22;2125;51.436;14.138;2022-12-20T04:31:20;2.60;87.90
4223;DHT22;2125;51.436;14.138;2022-12-20T04:33:47;2.70;87.90
4223;DHT22;2125;51.436;14.138;2022-12-20T04:36:13;2.70;87.90
4223;DHT22;2125;51.436;14.138;2022-12-20T04:38:40;2.70;87.80
4223;DHT22;2125;51.436;14.138;2022-12-20T04:41:08;2.80;87.80
4223;DHT22;2125;51.436;14.138;2022-12-20T04:43:47;2.80;87.80
4223;DHT22;2125;51.436;14.138;2022-12-20T04:46:13;2.80;87.80
4223;DHT22;2125;51.436;14.138;2022-12-20T04:48:40;2.90;87.80
4223;DHT22;2125;51.436;14.138;2022-12-20T04:51:07;2.90;87.80
4223;DHT22;2125;51.436;14.138;2022-12-20T04:53:33;2.90;87.80
4223;DHT22;2125;51.436;14.138;2022-12-20T04:56:18;3.00;87.80
4223;DHT22;2125;51.436;14.138;2022-12-20T04:58:45;3.00;87.70
4223;DHT22;2125;51.436;14.138;2022-12-20T05:01:12;2.90;87.60
4223;DHT22;2125;51.436;14.138;2022-12-20T05:03:39;2.80;87.60
4223;DHT22;2125;51.436;14.138;2022-12-20T05:06:07;2.80;87.60
4223;DHT22;2125;51.436;14.138;2022-12-20T05:08:34;2.70;87.60
4223;DHT22;2125;51.436;14.138;2022-12-20T05:11:01;2.70;87.80
4223;DHT22;2125;51.436;14.138;2022-12-20T05:13:30;2.70;87.80
4223;DHT22;2125;51.436;14.138;2022-12-20T05:15:57;2.80;87.80
4223;DHT22;2125;51.436;14.138;2022-12-20T05:18:25;2.80;87.80
4223;DHT22;2125;51.436;14.138;2022-12-20T05:20:55;2.80;87.70
4223;DHT22;2125;51.436;14.138;2022-12-20T05:23:36;2.80;87.70
4223;DHT22;2125;51.436;14.138;2022-12-20T05:26:20;2.80;87.70
4223;DHT22;2125;51.436;14.138;2022-12-20T05:28:50;2.80;87.60
4223;DHT22;2125;51.436;14.138;2022-12-20T05:31:17;2.80;87.60
4223;DHT22;2125;51.436;14.138;2022-12-20T05:33:44;2.80;87.60
4223;DHT22;2125;51.436;14.138;2022-12-20T05:36:11;2.80;87.60
4223;DHT22;2125;51.436;14.138;2022-12-20T05:38:38;2.80;87.50
4223;DHT22;2125;51.436;14.138;2022-12-20T05:41:04;2.80;87.50
4223;DHT22;2125;51.436;14.138;2022-12-20T05:43:31;2.70;87.50
4223;DHT22;2125;51.436;14.138;2022-12-20T05:45:59;2.70;87.60
4223;DHT22;2125;51.436;14.138;2022-12-20T05:48:26;2.60;87.60
4223;DHT22;2125;51.436;14.138;2022-12-20T05:50:53;2.70;87.70
4223;DHT22;2125;51.436;14.138;2022-12-20T05:53:20;2.70;87.70
4223;DHT22;2125;51.436;14.138;2022-12-20T05:55:47;2.80;87.60
4223;DHT22;2125;51.436;14.138;2022-12-20T05:58:15;2.70;87.50
4223;DHT22;2125;51.436;14.138;2022-12-20T06:00:43;2.80;87.60
4223;DHT22;2125;51.436;14.138;2022-12-20T06:03:11;2.80;87.60
4223;DHT22;2125;51.436;14.138;2022-12-20T06:05:40;2.80;87.50
4223;DHT22;2125;51.436;14.138;2022-12-20T06:08:17;2.80;87.60
4223;DHT22;2125;51.436;14.138;2022-12-20T06:10:47;2.80;87.60
4223;DHT22;2125;51.436;14.138;2022-12-20T06:13:28;2.90;87.60
4223;DHT22;2125;51.436;14.138;2022-12-20T06:15:54;2.90;87.60
4223;DHT22;2125;51.436;14.138;2022-12-20T06:18:22;2.90;87.60
4223;DHT22;2125;51.436;14.138;2022-12-20T06:20:49;2.90;87.70
4223;DHT22;2125;51.436;14.138;2022-12-20T06:23:16;2.90;87.60
4223;DHT22;2125;51.436;14.138;2022-12-20T06:25:43;2.90;87.70
4223;DHT22;2125;51.436;14.138;2022-12-20T06:28:09;2.90;87.60
4223;DHT22;2125;51.436;14.138;2022-12-20T06:30:38;2.80;87.70
4223;DHT22;2125;51.436;14.138;2022-12-20T06:33:08;2.80;87.70
4223;DHT22;2125;51.436;14.138;2022-12-20T06:35:36;2.80;87.70
4223;DHT22;2125;51.436;14.138;2022-12-20T06:38:03;2.80;87.80
4223;DHT22;2125;51.436;14.138;2022-12-20T06:40:30;2.80;87.80
4223;DHT22;2125;51.436;14.138;2022-12-20T06:42:56;2.80;87.80
4223;DHT22;2125;51.436;14.138;2022-12-20T06:45:23;2.80;87.80
4223;DHT22;2125;51.436;14.138;2022-12-20T06:47:49;2.80;87.80
4223;DHT22;2125;51.436;14.138;2022-12-20T06:50:16;2.80;87.80
4223;DHT22;2125;51.436;14.138;2022-12-20T06:52:44;2.80;87.80
4223;DHT22;2125;51.436;14.138;2022-12-20T06:55:12;2.80;88.00
4223;DHT22;2125;51.436;14.138;2022-12-20T06:57:38;2.80;88.00
4223;DHT22;2125;51.436;14.138;2022-12-20T07:00:06;2.80;87.80
4223;DHT22;2125;51.436;14.138;2022-12-20T07:02:35;2.80;87.80
4223;DHT22;2125;51.436;14.138;2022-12-20T07:05:01;2.80;88.00
4223;DHT22;2125;51.436;14.138;2022-12-20T07:07:28;2.80;87.80
4223;DHT22;2125;51.436;14.138;2022-12-20T07:09:56;2.80;87.80
4223;DHT22;2125;51.436;14.138;2022-12-20T07:12:24;2.80;88.00
4223;DHT22;2125;51.436;14.138;2022-12-20T07:14:51;2.70;87.80
4223;DHT22;2125;51.436;14.138;2022-12-20T07:17:17;2.70;88.00
4223;DHT22;2125;51.436;14.138;2022-12-20T07:19:44;2.70;88.00
4223;DHT22;2125;51.436;14.138;2022-12-20T07:22:11;2.70;88.00
4223;DHT22;2125;51.436;14.138;2022-12-20T07:24:37;2.70;88.00
4223;DHT22;2125;51.436;14.138;2022-12-20T07:27:05;2.80;88.00
4223;DHT22;2125;51.436;14.138;2022-12-20T07:29:32;2.80;87.80
4223;DHT22;2125;51.436;14.138;2022-12-20T07:31:58;2.70;87.80
4223;DHT22;2125;51.436;14.138;2022-12-20T07:34:25;2.80;87.80
4223;DHT22;2125;51.436;14.138;2022-12-20T07:36:52;2.80;87.80
4223;DHT22;2125;51.436;14.138;2022-12-20T07:39:18;2.80;87.80
4223;DHT22;2125;51.436;14.138;2022-12-20T07:41:46;2.90;87.80
4223;DHT22;2125;51.436;14.138;2022-12-20T07:44:14;2.90;87.80
4223;DHT22;2125;51.436;14.138;2022-12-20T07:46:40;2.90;87.80
4223;DHT22;2125;51.436;14.138;2022-12-20T07:49:08;3.00;87.80
4223;DHT22;2125;51.436;14.138;2022-12-20T07:51:37;3.00;87.70
4223;DHT22;2125;51.436;14.138;2022-12-20T07:54:09;2.90;87.70
4223;DHT22;2125;51.436;14.138;2022-12-20T07:56:39;2.90;87.80
4223;DHT22;2125;51.436;14.138;2022-12-20T07:59:08;2.90;87.80
4223;DHT22;2125;51.436;14.138;2022-12-20T08:01:38;3.00;87.80
4223;DHT22;2125;51.436;14.138;2022-12-20T08:04:09;3.10;87.80
4223;DHT22;2125;51.436;14.138;2022-12-20T08:06:38;3.20;87.80
4223;DHT22;2125;51.436;14.138;2022-12-20T08:09:06;3.20;87.80
4223;DHT22;2125;51.436;14.138;2022-12-20T08:11:35;3.30;87.70
4223;DHT22;2125;51.436;14.138;2022-12-20T08:14:03;3.30;87.60
4223;DHT22;2125;51.436;14.138;2022-12-20T08:16:34;3.30;87.50
4223;DHT22;2125;51.436;14.138;2022-12-20T08:19:02;3.30;87.40
4223;DHT22;2125;51.436;14.138;2022-12-20T08:21:30;3.30;87.40
4223;DHT22;2125;51.436;14.138;2022-12-20T08:23:56;3.20;87.30
4223;DHT22;2125;51.436;14.138;2022-12-20T08:26:23;3.30;87.30
4223;DHT22;2125;51.436;14.138;2022-12-20T08:28:50;3.20;87.30
4223;DHT22;2125;51.436;14.138;2022-12-20T08:31:18;3.20;87.10
4223;DHT22;2125;51.436;14.138;2022-12-20T08:33:45;3.20;87.30
4223;DHT22;2125;51.436;14.138;2022-12-20T08:36:13;3.20;87.30
4223;DHT22;2125;51.436;14.138;2022-12-20T08:38:40;3.20;87.30
4223;DHT22;2125;51.436;14.138;2022-12-20T08:41:09;3.20;87.10
4223;DHT22;2125;51.436;14.138;2022-12-20T08:43:37;3.20;87.00
4223;DHT22;2125;51.436;14.138;2022-12-20T08:46:04;3.20;87.00
4223;DHT22;2125;51.436;14.138;2022-12-20T08:48:32;3.30;87.00
4223;DHT22;2125;51.436;14.138;2022-12-20T08:51:00;3.30;87.00
4223;DHT22;2125;51.436;14.138;2022-12-20T08:53:28;3.30;87.00
4223;DHT22;2125;51.436;14.138;2022-12-20T08:56:03;3.40;87.00
4223;DHT22;2125;51.436;14.138;2022-12-20T08:58:30;3.50;87.00
4223;DHT22;2125;51.436;14.138;2022-12-20T09:00:58;3.50;86.90
4223;DHT22;2125;51.436;14.138;2022-12-20T09:03:29;3.50;86.90
4223;DHT22;2125;51.436;14.138;2022-12-20T09:05:57;3.50;86.70
4223;DHT22;2125;51.436;14.138;2022-12-20T09:08:33;3.60;86.80
4223;DHT22;2125;51.436;14.138;2022-12-20T09:11:04;3.80;86.50
4223;DHT22;2125;51.436;14.138;2022-12-20T09:13:31;4.00;86.40
4223;DHT22;2125;51.436;14.138;2022-12-20T09:16:06;4.10;85.80
4223;DHT22;2125;51.436;14.138;2022-12-20T09:18:47;4.20;85.50
4223;DHT22;2125;51.436;14.138;2022-12-20T09:21:17;4.40;85.30
4223;DHT22;2125;51.436;14.138;2022-12-20T09:23:55;4.50;84.70
4223;DHT22;2125;51.436;14.138;2022-12-20T09:26:25;4.50;84.20
4223;DHT22;2125;51.436;14.138;2022-12-20T09:28:52;4.50;84.20
4223;DHT22;2125;51.436;14.138;2022-12-20T09:31:22;4.60;84.30
4223;DHT22;2125;51.436;14.138;2022-12-20T09:33:56;4.70;84.10
4223;DHT22;2125;51.436;14.138;2022-12-20T09:36:24;4.70;83.80
4223;DHT22;2125;51.436;14.138;2022-12-20T09:38:54;4.70;83.50
4223;DHT22;2125;51.436;14.138;2022-12-20T09:41:28;4.50;83.30
4223;DHT22;2125;51.436;14.138;2022-12-20T09:43:57;4.50;83.80
4223;DHT22;2125;51.436;14.138;2022-12-20T09:46:26;4.50;83.80
4223;DHT22;2125;51.436;14.138;2022-12-20T09:48:53;4.30;83.70
4223;DHT22;2125;51.436;14.138;2022-12-20T09:51:42;4.20;84.20
4223;DHT22;2125;51.436;14.138;2022-12-20T09:54:21;4.10;84.40
4223;DHT22;2125;51.436;14.138;2022-12-20T09:56:58;4.00;84.60
4223;DHT22;2125;51.436;14.138;2022-12-20T09:59:26;4.00;84.70
4223;DHT22;2125;51.436;14.138;2022-12-20T10:01:54;4.00;84.60
4223;DHT22;2125;51.436;14.138;2022-12-20T10:04:22;4.00;84.80
4223;DHT22;2125;51.436;14.138;2022-12-20T10:07:02;3.90;84.70
4223;DHT22;2125;51.436;14.138;2022-12-20T10:10:08;4.00;84.80
4223;DHT22;2125;51.436;14.138;2022-12-20T10:12:47;4.10;84.90
4223;DHT22;2125;51.436;14.138;2022-12-20T10:15:21;4.00;84.50
4223;DHT22;2125;51.436;14.138;2022-12-20T10:18:02;4.00;84.60
4223;DHT22;2125;51.436;14.138;2022-12-20T10:20:45;4.00;84.70
4223;DHT22;2125;51.436;14.138;2022-12-20T10:23:24;4.00;84.80
4223;DHT22;2125;51.436;14.138;2022-12-20T10:25:55;3.90;84.70
4223;DHT22;2125;51.436;14.138;2022-12-20T10:28:27;4.00;84.80
4223;DHT22;2125;51.436;14.138;2022-12-20T10:30:58;4.10;84.90
4223;DHT22;2125;51.436;14.138;2022-12-20T10:33:26;4.10;84.80
4223;DHT22;2125;51.436;14.138;2022-12-20T10:35:54;4.10;84.70
4223;DHT22;2125;51.436;14.138;2022-12-20T10:38:21;4.30;84.80
4223;DHT22;2125;51.436;14.138;2022-12-20T10:41:00;4.30;84.10
4223;DHT22;2125;51.436;14.138;2022-12-20T10:43:38;4.30;84.10
4223;DHT22;2125;51.436;14.138;2022-12-20T10:46:07;4.20;84.20
4223;DHT22;2125;51.436;14.138;2022-12-20T10:48:35;4.30;84.10
4223;DHT22;2125;51.436;14.138;2022-12-20T10:51:13;4.30;83.90
4223;DHT22;2125;51.436;14.138;2022-12-20T10:53:56;4.20;83.90
4223;DHT22;2125;51.436;14.138;2022-12-20T10:56:26;4.20;84.10
4223;DHT22;2125;51.436;14.138;2022-12-20T10:58:57;4.20;84.10
4223;DHT22;2125;51.436;14.138;2022-12-20T11:01:27;4.20;83.90
4223;DHT22;2125;51.436;14.138;2022-12-20T11:03:57;4.10;83.80
4223;DHT22;2125;51.436;14.138;2022-12-20T11:06:27;4.10;84.20
4223;DHT22;2125;51.436;14.138;2022-12-20T11:09:20;4.20;84.20
4223;DHT22;2125;51.436;14.138;2022-12-20T11:12:13;4.20;84.00
4223;DHT22;2125;51.436;14.138;2022-12-20T11:14:41;4.30;83.80
4223;DHT22;2125;51.436;14.138;2022-12-20T11:17:21;4.30;83.70
4223;DHT22;2125;51.436;14.138;2022-12-20T11:20:01;4.30;83.70
4223;DHT22;2125;51.436;14.138;2022-12-20T11:22:38;4.30;83.80
4223;DHT22;2125;51.436;14.138;2022-12-20T11:25:27;4.40;83.60
4223;DHT22;2125;51.436;14.138;2022-12-20T11:28:13;4.40;83.50
4223;DHT22;2125;51.436;14.138;2022-12-20T11:30:52;4.50;83.40
4223;DHT22;2125;51.436;14.138;2022-12-20T11:33:47;4.50;83.20
4223;DHT22;2125;51.436;14.138;2022-12-20T11:36:23;4.30;82.90
4223;DHT22;2125;51.436;14.138;2022-12-20T11:38:59;4.20;83.40
4223;DHT22;2125;51.436;14.138;2022-12-20T11:41:34;4.20;83.50
4223;DHT22;2125;51.436;14.138;2022-12-20T11:44:13;4.10;83.50
4223;DHT22;2125;51.436;14.138;2022-12-20T11:46:52;4.00;83.80
4223;DHT22;2125;51.436;14.138;2022-12-20T11:49:44;3.90;84.00
4223;DHT22;2125;51.436;14.138;2022-12-20T11:52:24;4.00;84.30
4223;DHT22;2125;51.436;14.138;2022-12-20T11:55:01;4.00;84.30
4223;DHT22;2125;51.436;14.138;2022-12-20T11:57:33;4.10;84.20
4223;DHT22;2125;51.436;14.138;2022-12-20T12:00:12;4.20;84.20
4223;DHT22;2125;51.436;14.138;2022-12-20T12:02:43;4.10;83.90
4223;DHT22;2125;51.436;14.138;2022-12-20T12:05:19;4.20;83.90
4223;DHT22;2125;51.436;14.138;2022-12-20T12:07:51;4.30;83.80
4223;DHT22;2125;51.436;14.138;2022-12-20T12:10:21;4.30;83.60
4223;DHT22;2125;51.436;14.138;2022-12-20T12:12:54;4.30;83.50
4223;DHT22;2125;51.436;14.138;2022-12-20T12:15:29;4.30;83.50
4223;DHT22;2125;51.436;14.138;2022-12-20T12:17:59;4.30;83.70
4223;DHT22;2125;51.436;14.138;2022-12-20T12:20:33;4.30;83.70
4223;DHT22;2125;51.436;14.138;2022-12-20T12:23:06;4.30;83.40
4223;DHT22;2125;51.436;14.138;2022-12-20T12:25:36;4.50;83.40
4223;DHT22;2125;51.436;14.138;2022-12-20T12:28:03;4.40;83.10
4223;DHT22;2125;51.436;14.138;2022-12-20T12:30:38;4.30;83.20
4223;DHT22;2125;51.436;14.138;2022-12-20T12:33:12;4.20;83.60
4223;DHT22;2125;51.436;14.138;2022-12-20T12:35:56;4.30;83.80
4223;DHT22;2125;51.436;14.138;2022-12-20T12:38:50;4.20;83.80
4223;DHT22;2125;51.436;14.138;2022-12-20T12:41:46;4.20;83.90
4223;DHT22;2125;51.436;14.138;2022-12-20T12:44:34;4.30;83.80
4223;DHT22;2125;51.436;14.138;2022-12-20T12:47:10;4.30;83.70
4223;DHT22;2125;51.436;14.138;2022-12-20T12:49:39;4.30;83.90
4223;DHT22;2125;51.436;14.138;2022-12-20T12:52:06;4.30;83.90
4223;DHT22;2125;51.436;14.138;2022-12-20T12:54:35;4.30;83.80
4223;DHT22;2125;51.436;14.138;2022-12-20T12:57:06;4.30;83.90
4223;DHT22;2125;51.436;14.138;2022-12-20T12:59:42;4.30;83.80
4223;DHT22;2125;51.436;14.138;2022-12-20T13:02:34;4.30;83.60
4223;DHT22;2125;51.436;14.138;2022-12-20T13:05:29;4.30;83.80
4223;DHT22;2125;51.436;14.138;2022-12-20T13:07:56;4.30;83.80
4223;DHT22;2125;51.436;14.138;2022-12-20T13:10:57;4.30;83.90
4223;DHT22;2125;51.436;14.138;2022-12-20T13:13:24;4.30;83.90
4223;DHT22;2125;51.436;14.138;2022-12-20T13:16:10;4.30;83.80
4223;DHT22;2125;51.436;14.138;2022-12-20T13:19:12;4.20;83.90
4223;DHT22;2125;51.436;14.138;2022-12-20T13:21:41;4.20;84.20
4223;DHT22;2125;51.436;14.138;2022-12-20T13:24:36;4.10;84.10
4223;DHT22;2125;51.436;14.138;2022-12-20T13:30:27;4.00;83.90
4223;DHT22;2125;51.436;14.138;2022-12-20T13:33:22;3.90;84.20
4223;DHT22;2125;51.436;14.138;2022-12-20T13:38:55;3.80;84.40
4223;DHT22;2125;51.436;14.138;2022-12-20T13:41:40;3.90;84.50
4223;DHT22;2125;51.436;14.138;2022-12-20T13:44:35;3.90;84.50
4223;DHT22;2125;51.436;14.138;2022-12-20T13:47:27;3.90;84.40
4223;DHT22;2125;51.436;14.138;2022-12-20T13:49:59;3.90;84.60
4223;DHT22;2125;51.436;14.138;2022-12-20T13:52:29;3.80;84.80
4223;DHT22;2125;51.436;14.138;2022-12-20T13:54:59;3.80;84.80
4223;DHT22;2125;51.436;14.138;2022-12-20T13:57:31;3.70;84.70
4223;DHT22;2125;51.436;14.138;2022-12-20T14:00:01;3.70;84.80
4223;DHT22;2125;51.436;14.138;2022-12-20T14:02:32;3.70;84.90
4223;DHT22;2125;51.436;14.138;2022-12-20T14:05:02;3.70;85.00
4223;DHT22;2125;51.436;14.138;2022-12-20T14:07:31;3.60;85.20
4223;DHT22;2125;51.436;14.138;2022-12-20T14:10:00;3.60;85.30
4223;DHT22;2125;51.436;14.138;2022-12-20T14:12:27;3.60;85.40
4223;DHT22;2125;51.436;14.138;2022-12-20T14:14:55;3.50;85.30
4223;DHT22;2125;51.436;14.138;2022-12-20T14:17:25;3.50;85.50
4223;DHT22;2125;51.436;14.138;2022-12-20T14:20:11;3.50;85.70
4223;DHT22;2125;51.436;14.138;2022-12-20T14:22:41;3.60;85.70
4223;DHT22;2125;51.436;14.138;2022-12-20T14:25:16;3.60;85.90
4223;DHT22;2125;51.436;14.138;2022-12-20T14:27:44;3.60;85.90
4223;DHT22;2125;51.436;14.138;2022-12-20T14:30:28;3.60;85.80
4223;DHT22;2125;51.436;14.138;2022-12-20T14:32:56;3.50;85.90
4223;DHT22;2125;51.436;14.138;2022-12-20T14:35:23;3.50;86.10
4223;DHT22;2125;51.436;14.138;2022-12-20T14:37:56;3.40;86.20
4223;DHT22;2125;51.436;14.138;2022-12-20T14:40:23;3.40;86.40
4223;DHT22;2125;51.436;14.138;2022-12-20T14:42:50;3.40;86.50
4223;DHT22;2125;51.436;14.138;2022-12-20T14:45:20;3.40;86.60
4223;DHT22;2125;51.436;14.138;2022-12-20T14:47:50;3.40;86.60
4223;DHT22;2125;51.436;14.138;2022-12-20T14:50:23;3.40;86.70
4223;DHT22;2125;51.436;14.138;2022-12-20T14:52:52;3.40;86.50
4223;DHT22;2125;51.436;14.138;2022-12-20T14:55:21;3.30;86.60
4223;DHT22;2125;51.436;14.138;2022-12-20T14:57:51;3.30;86.60
4223;DHT22;2125;51.436;14.138;2022-12-20T15:00:21;3.20;86.50
4223;DHT22;2125;51.436;14.138;2022-12-20T15:02:57;3.20;86.50
4223;DHT22;2125;51.436;14.138;2022-12-20T15:05:46;3.20;86.60
4223;DHT22;2125;51.436;14.138;2022-12-20T15:08:15;3.20;86.60
4223;DHT22;2125;51.436;14.138;2022-12-20T15:10:50;3.20;86.60
4223;DHT22;2125;51.436;14.138;2022-12-20T15:13:20;3.20;86.60
4223;DHT22;2125;51.436;14.138;2022-12-20T15:15:47;3.20;86.50
4223;DHT22;2125;51.436;14.138;2022-12-20T15:18:15;3.20;86.50
4223;DHT22;2125;51.436;14.138;2022-12-20T15:20:43;3.10;86.60
4223;DHT22;2125;51.436;14.138;2022-12-20T15:23:13;3.10;86.60
4223;DHT22;2125;51.436;14.138;2022-12-20T15:25:41;3.10;86.70
4223;DHT22;2125;51.436;14.138;2022-12-20T15:28:14;3.20;86.50
4223;DHT22;2125;51.436;14.138;2022-12-20T15:30:41;3.10;86.60
4223;DHT22;2125;51.436;14.138;2022-12-20T15:33:14;3.10;86.70
4223;DHT22;2125;51.436;14.138;2022-12-20T15:35:41;3.10;86.60
4223;DHT22;2125;51.436;14.138;2022-12-20T15:38:12;3.10;86.60
4223;DHT22;2125;51.436;14.138;2022-12-20T15:40:40;3.10;86.60
4223;DHT22;2125;51.436;14.138;2022-12-20T15:43:12;3.10;86.70
4223;DHT22;2125;51.436;14.138;2022-12-20T15:45:40;3.20;86.40
4223;DHT22;2125;51.436;14.138;2022-12-20T15:48:13;3.20;86.50
4223;DHT22;2125;51.436;14.138;2022-12-20T15:50:42;3.20;86.50
4223;DHT22;2125;51.436;14.138;2022-12-20T15:53:12;3.20;86.30
4223;DHT22;2125;51.436;14.138;2022-12-20T15:55:39;3.20;86.30
4223;DHT22;2125;51.436;14.138;2022-12-20T15:58:07;3.20;86.30
4223;DHT22;2125;51.436;14.138;2022-12-20T16:00:36;3.20;86.20
4223;DHT22;2125;51.436;14.138;2022-12-20T16:03:04;3.30;86.30
4223;DHT22;2125;51.436;14.138;2022-12-20T16:05:31;3.20;86.20
4223;DHT22;2125;51.436;14.138;2022-12-20T16:07:58;3.30;86.30
4223;DHT22;2125;51.436;14.138;2022-12-20T16:10:25;3.20;86.20
4223;DHT22;2125;51.436;14.138;2022-12-20T16:12:51;3.20;86.10
4223;DHT22;2125;51.436;14.138;2022-12-20T16:15:20;3.30;86.20
4223;DHT22;2125;51.436;14.138;2022-12-20T16:17:48;3.30;86.10
4223;DHT22;2125;51.436;14.138;2022-12-20T16:20:15;3.30;86.10
4223;DHT22;2125;51.436;14.138;2022-12-20T16:22:42;3.30;86.20
4223;DHT22;2125;51.436;14.138;2022-12-20T16:25:22;3.30;86.10
4223;DHT22;2125;51.436;14.138;2022-12-20T16:27:50;3.30;86.10
4223;DHT22;2125;51.436;14.138;2022-12-20T16:30:16;3.30;86.20
4223;DHT22;2125;51.436;14.138;2022-12-20T16:32:43;3.30;86.10
4223;DHT22;2125;51.436;14.138;2022-12-20T16:35:26;3.30;86.30
4223;DHT22;2125;51.436;14.138;2022-12-20T16:37:53;3.30;86.40